Terminal Aerodrome Forecast
Issued by NWS

Home | Current Version | Previous Version | Text Only | Print | Product List | Glossary On
Versions: 1 2 3 4 5 6 7 8 9 10 11 12 13 14 15 16 17 18 19 20 21 22 23
000
FTUS42 KFFC 010500 RRA
TAFPDK
TAF
KPDK 010543Z 0106/0206 32014G25KT P6SM VCSH FEW035 BKN060
     FM011000 33016G28KT P6SM BKN025
     FM011600 32018G33KT P6SM BKN040
     FM012000 32018G30KT P6SM SCT040
     FM020000 33015G25KT P6SM SCT070
     FM020500 32010KT P6SM SKC=

USA.gov is the U.S. government's official web portal to all federal, state and local government web resources and services.